sensor_id;sensor_type;location;lat;lon;timestamp;temperature;humidity
43673;DHT22;41723;49.326;8.430;2023-04-03T00:01:54;6.60;98.00
43673;DHT22;41723;49.326;8.430;2023-04-03T00:04:20;6.50;98.00
43673;DHT22;41723;49.326;8.430;2023-04-03T00:06:46;6.50;98.40
43673;DHT22;41723;49.326;8.430;2023-04-03T00:09:12;6.60;98.70
43673;DHT22;41723;49.326;8.430;2023-04-03T00:11:37;6.60;98.10
43673;DHT22;41723;49.326;8.430;2023-04-03T00:14:03;6.60;98.30
43673;DHT22;41723;49.326;8.430;2023-04-03T00:16:28;6.50;98.20
43673;DHT22;41723;49.326;8.430;2023-04-03T00:18:54;6.60;97.90
43673;DHT22;41723;49.326;8.430;2023-04-03T00:21:20;6.50;98.30
43673;DHT22;41723;49.326;8.430;2023-04-03T00:23:45;6.30;98.20
43673;DHT22;41723;49.326;8.430;2023-04-03T00:26:11;6.20;98.80
43673;DHT22;41723;49.326;8.430;2023-04-03T00:28:39;6.20;98.90
43673;DHT22;41723;49.326;8.430;2023-04-03T00:31:04;6.20;98.40
43673;DHT22;41723;49.326;8.430;2023-04-03T00:33:30;6.10;99.00
43673;DHT22;41723;49.326;8.430;2023-04-03T00:35:56;6.10;98.80
43673;DHT22;41723;49.326;8.430;2023-04-03T00:38:21;6.00;99.00
43673;DHT22;41723;49.326;8.430;2023-04-03T00:40:47;6.00;99.00
43673;DHT22;41723;49.326;8.430;2023-04-03T00:43:17;6.00;99.00
43673;DHT22;41723;49.326;8.430;2023-04-03T00:45:44;6.00;99.20
43673;DHT22;41723;49.326;8.430;2023-04-03T00:48:11;5.90;99.00
43673;DHT22;41723;49.326;8.430;2023-04-03T00:50:51;6.00;99.20
43673;DHT22;41723;49.326;8.430;2023-04-03T00:53:18;6.10;98.90
43673;DHT22;41723;49.326;8.430;2023-04-03T00:55:45;6.00;99.00
43673;DHT22;41723;49.326;8.430;2023-04-03T00:58:12;6.00;99.00
43673;DHT22;41723;49.326;8.430;2023-04-03T01:00:38;6.00;98.90
43673;DHT22;41723;49.326;8.430;2023-04-03T01:03:05;6.00;99.10
43673;DHT22;41723;49.326;8.430;2023-04-03T01:05:31;5.90;99.50
43673;DHT22;41723;49.326;8.430;2023-04-03T01:07:58;5.80;99.20
43673;DHT22;41723;49.326;8.430;2023-04-03T01:10:24;5.70;99.70
43673;DHT22;41723;49.326;8.430;2023-04-03T01:12:51;5.70;99.10
43673;DHT22;41723;49.326;8.430;2023-04-03T01:15:25;5.60;99.00
43673;DHT22;41723;49.326;8.430;2023-04-03T01:17:52;5.70;99.00
43673;DHT22;41723;49.326;8.430;2023-04-03T01:25:19;5.60;99.70
43673;DHT22;41723;49.326;8.430;2023-04-03T01:27:44;5.70;99.00
43673;DHT22;41723;49.326;8.430;2023-04-03T01:30:10;5.70;99.00
43673;DHT22;41723;49.326;8.430;2023-04-03T01:32:36;5.50;99.10
43673;DHT22;41723;49.326;8.430;2023-04-03T01:35:02;5.40;99.50
43673;DHT22;41723;49.326;8.430;2023-04-03T01:37:28;5.40;99.50
43673;DHT22;41723;49.326;8.430;2023-04-03T01:39:53;5.40;99.90
43673;DHT22;41723;49.326;8.430;2023-04-03T01:42:19;5.40;99.30
43673;DHT22;41723;49.326;8.430;2023-04-03T01:44:44;5.30;99.20
43673;DHT22;41723;49.326;8.430;2023-04-03T01:47:11;5.20;99.40
43673;DHT22;41723;49.326;8.430;2023-04-03T01:49:39;5.20;99.50
43673;DHT22;41723;49.326;8.430;2023-04-03T01:52:05;5.30;99.10
43673;DHT22;41723;49.326;8.430;2023-04-03T01:54:30;5.30;98.90
43673;DHT22;41723;49.326;8.430;2023-04-03T01:56:56;5.30;98.90
43673;DHT22;41723;49.326;8.430;2023-04-03T01:59:22;5.30;98.90
43673;DHT22;41723;49.326;8.430;2023-04-03T02:01:47;5.30;99.00
43673;DHT22;41723;49.326;8.430;2023-04-03T02:04:13;5.20;98.60
43673;DHT22;41723;49.326;8.430;2023-04-03T02:06:38;5.20;98.90
43673;DHT22;41723;49.326;8.430;2023-04-03T02:09:05;5.30;98.70
43673;DHT22;41723;49.326;8.430;2023-04-03T02:11:30;5.30;98.90
43673;DHT22;41723;49.326;8.430;2023-04-03T02:13:56;5.20;99.00
43673;DHT22;41723;49.326;8.430;2023-04-03T02:16:23;5.20;99.70
43673;DHT22;41723;49.326;8.430;2023-04-03T02:18:48;5.30;99.00
43673;DHT22;41723;49.326;8.430;2023-04-03T02:21:15;5.20;99.60
43673;DHT22;41723;49.326;8.430;2023-04-03T02:23:41;5.20;99.80
43673;DHT22;41723;49.326;8.430;2023-04-03T02:26:07;5.20;99.70
43673;DHT22;41723;49.326;8.430;2023-04-03T02:28:33;5.20;99.80
43673;DHT22;41723;49.326;8.430;2023-04-03T02:30:59;5.20;99.60
43673;DHT22;41723;49.326;8.430;2023-04-03T02:33:25;5.20;99.80
43673;DHT22;41723;49.326;8.430;2023-04-03T02:35:54;5.10;99.90
43673;DHT22;41723;49.326;8.430;2023-04-03T02:38:21;5.10;99.90
43673;DHT22;41723;49.326;8.430;2023-04-03T02:40:48;5.10;99.90
43673;DHT22;41723;49.326;8.430;2023-04-03T02:43:13;5.20;99.90
43673;DHT22;41723;49.326;8.430;2023-04-03T02:45:39;5.00;99.90
43673;DHT22;41723;49.326;8.430;2023-04-03T02:48:05;5.00;99.90
43673;DHT22;41723;49.326;8.430;2023-04-03T02:50:31;5.00;99.90
43673;DHT22;41723;49.326;8.430;2023-04-03T02:52:56;5.10;99.90
43673;DHT22;41723;49.326;8.430;2023-04-03T02:55:22;5.00;99.90
43673;DHT22;41723;49.326;8.430;2023-04-03T02:57:50;5.10;99.90
43673;DHT22;41723;49.326;8.430;2023-04-03T03:00:16;5.00;99.90
43673;DHT22;41723;49.326;8.430;2023-04-03T03:02:42;5.00;99.90
43673;DHT22;41723;49.326;8.430;2023-04-03T03:05:07;5.00;99.90
43673;DHT22;41723;49.326;8.430;2023-04-03T03:07:33;5.00;99.90
43673;DHT22;41723;49.326;8.430;2023-04-03T03:09:59;5.00;99.90
43673;DHT22;41723;49.326;8.430;2023-04-03T03:12:26;5.00;99.90
43673;DHT22;41723;49.326;8.430;2023-04-03T03:14:51;5.10;99.90
43673;DHT22;41723;49.326;8.430;2023-04-03T03:17:17;5.10;99.90
43673;DHT22;41723;49.326;8.430;2023-04-03T03:19:43;5.00;99.90
43673;DHT22;41723;49.326;8.430;2023-04-03T03:22:09;5.00;99.90
43673;DHT22;41723;49.326;8.430;2023-04-03T03:24:35;5.00;99.90
43673;DHT22;41723;49.326;8.430;2023-04-03T03:27:00;5.00;99.90
43673;DHT22;41723;49.326;8.430;2023-04-03T03:29:26;4.80;99.90
43673;DHT22;41723;49.326;8.430;2023-04-03T03:31:52;4.80;99.90
43673;DHT22;41723;49.326;8.430;2023-04-03T03:34:17;4.80;99.90
43673;DHT22;41723;49.326;8.430;2023-04-03T03:36:43;4.80;99.90
43673;DHT22;41723;49.326;8.430;2023-04-03T03:39:09;4.70;99.90
43673;DHT22;41723;49.326;8.430;2023-04-03T03:41:35;4.70;99.90
43673;DHT22;41723;49.326;8.430;2023-04-03T03:44:01;4.70;99.90
43673;DHT22;41723;49.326;8.430;2023-04-03T03:46:28;4.70;99.90
43673;DHT22;41723;49.326;8.430;2023-04-03T03:48:54;4.60;99.90
43673;DHT22;41723;49.326;8.430;2023-04-03T03:51:19;4.80;99.90
43673;DHT22;41723;49.326;8.430;2023-04-03T03:53:45;4.60;99.90
43673;DHT22;41723;49.326;8.430;2023-04-03T03:56:14;4.40;99.90
43673;DHT22;41723;49.326;8.430;2023-04-03T03:58:40;4.30;99.90
43673;DHT22;41723;49.326;8.430;2023-04-03T04:01:06;4.50;99.90
43673;DHT22;41723;49.326;8.430;2023-04-03T04:03:36;4.40;99.90
43673;DHT22;41723;49.326;8.430;2023-04-03T04:06:03;4.40;99.90
43673;DHT22;41723;49.326;8.430;2023-04-03T04:08:28;4.40;99.90
43673;DHT22;41723;49.326;8.430;2023-04-03T04:10:54;4.40;99.90
43673;DHT22;41723;49.326;8.430;2023-04-03T04:13:20;4.40;99.90
43673;DHT22;41723;49.326;8.430;2023-04-03T04:15:46;4.40;99.90
43673;DHT22;41723;49.326;8.430;2023-04-03T04:18:13;4.40;99.90
43673;DHT22;41723;49.326;8.430;2023-04-03T04:20:41;4.40;99.90
43673;DHT22;41723;49.326;8.430;2023-04-03T04:23:07;4.30;99.90
43673;DHT22;41723;49.326;8.430;2023-04-03T04:25:33;4.30;99.90
43673;DHT22;41723;49.326;8.430;2023-04-03T04:27:59;4.40;99.90
43673;DHT22;41723;49.326;8.430;2023-04-03T04:30:25;4.40;99.90
43673;DHT22;41723;49.326;8.430;2023-04-03T04:32:52;4.30;99.90
43673;DHT22;41723;49.326;8.430;2023-04-03T04:35:17;4.30;99.90
43673;DHT22;41723;49.326;8.430;2023-04-03T04:37:46;4.40;99.90
43673;DHT22;41723;49.326;8.430;2023-04-03T04:40:12;4.30;99.90
43673;DHT22;41723;49.326;8.430;2023-04-03T04:42:38;4.30;99.90
43673;DHT22;41723;49.326;8.430;2023-04-03T04:45:05;4.30;99.90
43673;DHT22;41723;49.326;8.430;2023-04-03T04:47:31;4.20;99.90
43673;DHT22;41723;49.326;8.430;2023-04-03T04:49:56;4.30;99.90
43673;DHT22;41723;49.326;8.430;2023-04-03T04:52:23;4.20;99.90
43673;DHT22;41723;49.326;8.430;2023-04-03T04:54:48;4.20;99.90
43673;DHT22;41723;49.326;8.430;2023-04-03T04:57:14;4.30;99.90
43673;DHT22;41723;49.326;8.430;2023-04-03T04:59:41;4.30;99.90
43673;DHT22;41723;49.326;8.430;2023-04-03T05:02:06;4.40;99.90
43673;DHT22;41723;49.326;8.430;2023-04-03T05:04:32;4.40;99.90
43673;DHT22;41723;49.326;8.430;2023-04-03T05:07:04;4.40;99.90
43673;DHT22;41723;49.326;8.430;2023-04-03T05:09:33;4.50;99.90
43673;DHT22;41723;49.326;8.430;2023-04-03T05:11:59;4.40;99.90
43673;DHT22;41723;49.326;8.430;2023-04-03T05:14:28;4.40;99.90
43673;DHT22;41723;49.326;8.430;2023-04-03T05:16:57;4.40;99.90
43673;DHT22;41723;49.326;8.430;2023-04-03T05:19:26;4.30;99.90
43673;DHT22;41723;49.326;8.430;2023-04-03T05:21:52;4.50;99.90
43673;DHT22;41723;49.326;8.430;2023-04-03T05:24:17;4.40;99.90
43673;DHT22;41723;49.326;8.430;2023-04-03T05:26:43;4.40;99.90
43673;DHT22;41723;49.326;8.430;2023-04-03T05:29:09;4.40;99.90
43673;DHT22;41723;49.326;8.430;2023-04-03T05:31:35;4.50;99.90
43673;DHT22;41723;49.326;8.430;2023-04-03T05:34:02;4.60;99.90
43673;DHT22;41723;49.326;8.430;2023-04-03T05:36:30;4.60;99.90
43673;DHT22;41723;49.326;8.430;2023-04-03T05:39:00;4.50;99.90
43673;DHT22;41723;49.326;8.430;2023-04-03T05:41:26;4.50;99.90
43673;DHT22;41723;49.326;8.430;2023-04-03T05:43:52;4.50;99.90
43673;DHT22;41723;49.326;8.430;2023-04-03T05:46:19;4.60;99.90
43673;DHT22;41723;49.326;8.430;2023-04-03T05:48:50;4.60;99.90
43673;DHT22;41723;49.326;8.430;2023-04-03T05:51:23;4.70;99.90
43673;DHT22;41723;49.326;8.430;2023-04-03T05:53:55;4.80;99.90
43673;DHT22;41723;49.326;8.430;2023-04-03T05:56:22;4.80;99.90
43673;DHT22;41723;49.326;8.430;2023-04-03T05:58:47;4.90;99.90
43673;DHT22;41723;49.326;8.430;2023-04-03T06:01:13;5.10;99.90
43673;DHT22;41723;49.326;8.430;2023-04-03T06:03:40;5.20;99.90
43673;DHT22;41723;49.326;8.430;2023-04-03T06:06:07;5.20;99.90
43673;DHT22;41723;49.326;8.430;2023-04-03T06:08:33;5.40;99.90
43673;DHT22;41723;49.326;8.430;2023-04-03T06:10:59;5.40;99.90
43673;DHT22;41723;49.326;8.430;2023-04-03T06:13:26;5.40;99.90
43673;DHT22;41723;49.326;8.430;2023-04-03T06:15:52;5.50;99.90
43673;DHT22;41723;49.326;8.430;2023-04-03T06:18:18;5.60;99.90
43673;DHT22;41723;49.326;8.430;2023-04-03T06:20:44;5.50;99.90
43673;DHT22;41723;49.326;8.430;2023-04-03T06:23:10;5.50;99.90
43673;DHT22;41723;49.326;8.430;2023-04-03T06:25:36;5.50;99.90
43673;DHT22;41723;49.326;8.430;2023-04-03T06:28:01;5.40;99.90
43673;DHT22;41723;49.326;8.430;2023-04-03T06:30:27;5.40;99.90
43673;DHT22;41723;49.326;8.430;2023-04-03T06:32:53;5.50;99.90
43673;DHT22;41723;49.326;8.430;2023-04-03T06:35:18;5.50;99.90
43673;DHT22;41723;49.326;8.430;2023-04-03T06:37:44;5.50;99.90
43673;DHT22;41723;49.326;8.430;2023-04-03T06:40:15;5.50;99.90
43673;DHT22;41723;49.326;8.430;2023-04-03T06:42:43;5.60;99.90
43673;DHT22;41723;49.326;8.430;2023-04-03T06:45:11;5.60;99.90
43673;DHT22;41723;49.326;8.430;2023-04-03T06:47:37;5.60;99.90
43673;DHT22;41723;49.326;8.430;2023-04-03T06:50:02;5.60;99.90
43673;DHT22;41723;49.326;8.430;2023-04-03T06:52:28;5.60;99.90
43673;DHT22;41723;49.326;8.430;2023-04-03T06:54:53;5.60;99.90
43673;DHT22;41723;49.326;8.430;2023-04-03T06:57:22;5.50;99.90
43673;DHT22;41723;49.326;8.430;2023-04-03T06:59:48;5.50;99.90
43673;DHT22;41723;49.326;8.430;2023-04-03T07:02:14;5.50;99.90
43673;DHT22;41723;49.326;8.430;2023-04-03T07:04:40;5.60;99.90
43673;DHT22;41723;49.326;8.430;2023-04-03T07:07:05;5.80;99.90
43673;DHT22;41723;49.326;8.430;2023-04-03T07:09:31;5.90;99.90
43673;DHT22;41723;49.326;8.430;2023-04-03T07:11:57;5.90;99.90
43673;DHT22;41723;49.326;8.430;2023-04-03T07:14:23;6.00;99.90
43673;DHT22;41723;49.326;8.430;2023-04-03T07:16:48;6.70;99.90
43673;DHT22;41723;49.326;8.430;2023-04-03T07:19:14;6.90;99.90
43673;DHT22;41723;49.326;8.430;2023-04-03T07:21:39;6.80;99.90
43673;DHT22;41723;49.326;8.430;2023-04-03T07:24:07;7.10;99.90
43673;DHT22;41723;49.326;8.430;2023-04-03T07:26:32;7.20;99.90
43673;DHT22;41723;49.326;8.430;2023-04-03T07:28:58;7.20;99.90
43673;DHT22;41723;49.326;8.430;2023-04-03T07:31:24;7.30;99.80
43673;DHT22;41723;49.326;8.430;2023-04-03T07:33:50;7.40;99.90
43673;DHT22;41723;49.326;8.430;2023-04-03T07:36:18;7.30;99.90
43673;DHT22;41723;49.326;8.430;2023-04-03T07:38:43;7.40;99.50
43673;DHT22;41723;49.326;8.430;2023-04-03T07:41:17;7.30;98.90
43673;DHT22;41723;49.326;8.430;2023-04-03T07:43:43;7.60;99.90
43673;DHT22;41723;49.326;8.430;2023-04-03T07:46:09;7.50;98.80
43673;DHT22;41723;49.326;8.430;2023-04-03T07:48:34;7.30;99.10
43673;DHT22;41723;49.326;8.430;2023-04-03T07:51:01;7.20;98.90
43673;DHT22;41723;49.326;8.430;2023-04-03T07:53:27;7.10;98.70
43673;DHT22;41723;49.326;8.430;2023-04-03T07:55:53;7.10;98.30
43673;DHT22;41723;49.326;8.430;2023-04-03T07:58:21;7.00;97.60
43673;DHT22;41723;49.326;8.430;2023-04-03T08:00:46;7.10;97.90
43673;DHT22;41723;49.326;8.430;2023-04-03T08:03:12;7.20;97.80
43673;DHT22;41723;49.326;8.430;2023-04-03T08:05:39;7.30;97.60
43673;DHT22;41723;49.326;8.430;2023-04-03T08:08:05;7.20;97.20
43673;DHT22;41723;49.326;8.430;2023-04-03T08:10:31;7.20;97.20
43673;DHT22;41723;49.326;8.430;2023-04-03T08:12:57;7.10;97.30
43673;DHT22;41723;49.326;8.430;2023-04-03T08:15:22;7.10;96.80
43673;DHT22;41723;49.326;8.430;2023-04-03T08:17:48;7.30;96.60
43673;DHT22;41723;49.326;8.430;2023-04-03T08:20:14;7.40;96.30
43673;DHT22;41723;49.326;8.430;2023-04-03T08:22:40;7.50;95.70
43673;DHT22;41723;49.326;8.430;2023-04-03T08:25:06;7.50;94.90
43673;DHT22;41723;49.326;8.430;2023-04-03T08:27:32;7.50;94.60
43673;DHT22;41723;49.326;8.430;2023-04-03T08:29:57;7.50;94.40
43673;DHT22;41723;49.326;8.430;2023-04-03T08:32:23;7.50;94.80
43673;DHT22;41723;49.326;8.430;2023-04-03T08:34:49;7.50;94.00
43673;DHT22;41723;49.326;8.430;2023-04-03T08:37:15;7.50;94.40
43673;DHT22;41723;49.326;8.430;2023-04-03T08:39:41;7.50;93.90
43673;DHT22;41723;49.326;8.430;2023-04-03T08:42:14;7.50;94.40
43673;DHT22;41723;49.326;8.430;2023-04-03T08:49:42;7.90;94.30
43673;DHT22;41723;49.326;8.430;2023-04-03T08:52:17;8.00;93.60
43673;DHT22;41723;49.326;8.430;2023-04-03T08:54:53;7.90;92.90
43673;DHT22;41723;49.326;8.430;2023-04-03T08:57:25;7.90;93.20
43673;DHT22;41723;49.326;8.430;2023-04-03T08:59:51;7.80;93.10
43673;DHT22;41723;49.326;8.430;2023-04-03T09:03:02;7.90;93.40
43673;DHT22;41723;49.326;8.430;2023-04-03T09:05:05;8.00;92.90
43673;DHT22;41723;49.326;8.430;2023-04-03T09:07:44;7.70;92.50
43673;DHT22;41723;49.326;8.430;2023-04-03T09:10:12;7.80;92.40
43673;DHT22;41723;49.326;8.430;2023-04-03T09:12:38;7.90;92.60
43673;DHT22;41723;49.326;8.430;2023-04-03T09:22:46;8.20;92.10
43673;DHT22;41723;49.326;8.430;2023-04-03T09:25:20;8.30;92.40
43673;DHT22;41723;49.326;8.430;2023-04-03T09:27:47;8.30;92.60
43673;DHT22;41723;49.326;8.430;2023-04-03T09:30:14;8.40;92.70
43673;DHT22;41723;49.326;8.430;2023-04-03T09:32:40;8.50;92.20
43673;DHT22;41723;49.326;8.430;2023-04-03T09:35:20;8.50;91.70
43673;DHT22;41723;49.326;8.430;2023-04-03T09:37:47;8.20;92.50
43673;DHT22;41723;49.326;8.430;2023-04-03T09:43:02;8.20;92.10
43673;DHT22;41723;49.326;8.430;2023-04-03T09:45:32;8.40;91.70
43673;DHT22;41723;49.326;8.430;2023-04-03T09:48:07;8.80;92.50
43673;DHT22;41723;49.326;8.430;2023-04-03T09:50:34;9.10;90.60
43673;DHT22;41723;49.326;8.430;2023-04-03T09:53:04;9.20;90.70
43673;DHT22;41723;49.326;8.430;2023-04-03T09:55:30;9.30;90.70
43673;DHT22;41723;49.326;8.430;2023-04-03T09:57:57;9.40;91.30
43673;DHT22;41723;49.326;8.430;2023-04-03T10:00:57;9.30;91.10
43673;DHT22;41723;49.326;8.430;2023-04-03T10:03:25;9.30;90.50
43673;DHT22;41723;49.326;8.430;2023-04-03T10:05:52;9.30;90.10
43673;DHT22;41723;49.326;8.430;2023-04-03T10:08:22;9.30;90.10
43673;DHT22;41723;49.326;8.430;2023-04-03T10:11:05;9.40;90.10
43673;DHT22;41723;49.326;8.430;2023-04-03T10:13:31;9.40;90.30
43673;DHT22;41723;49.326;8.430;2023-04-03T10:16:01;9.30;87.00
43673;DHT22;41723;49.326;8.430;2023-04-03T10:18:29;9.50;89.70
43673;DHT22;41723;49.326;8.430;2023-04-03T10:20:58;9.70;90.70
43673;DHT22;41723;49.326;8.430;2023-04-03T10:23:27;9.60;87.00
43673;DHT22;41723;49.326;8.430;2023-04-03T10:31:25;9.80;88.60
43673;DHT22;41723;49.326;8.430;2023-04-03T10:39:00;9.50;88.20
43673;DHT22;41723;49.326;8.430;2023-04-03T10:44:04;9.70;87.40
43673;DHT22;41723;49.326;8.430;2023-04-03T10:46:36;9.80;87.20
43673;DHT22;41723;49.326;8.430;2023-04-03T10:49:38;10.00;87.40
43673;DHT22;41723;49.326;8.430;2023-04-03T10:52:06;9.70;88.00
43673;DHT22;41723;49.326;8.430;2023-04-03T10:54:37;9.50;87.30
43673;DHT22;41723;49.326;8.430;2023-04-03T10:57:04;9.20;86.40
43673;DHT22;41723;49.326;8.430;2023-04-03T10:59:38;8.90;89.00
43673;DHT22;41723;49.326;8.430;2023-04-03T11:02:06;9.00;88.30
43673;DHT22;41723;49.326;8.430;2023-04-03T11:04:34;8.90;87.70
43673;DHT22;41723;49.326;8.430;2023-04-03T11:07:08;8.90;89.20
43673;DHT22;41723;49.326;8.430;2023-04-03T11:09:40;9.00;90.30
43673;DHT22;41723;49.326;8.430;2023-04-03T11:14:36;9.10;87.10
43673;DHT22;41723;49.326;8.430;2023-04-03T11:17:11;9.20;87.80
43673;DHT22;41723;49.326;8.430;2023-04-03T11:19:39;9.20;86.90
43673;DHT22;41723;49.326;8.430;2023-04-03T11:24:36;9.10;87.60
43673;DHT22;41723;49.326;8.430;2023-04-03T11:27:01;9.00;87.90
43673;DHT22;41723;49.326;8.430;2023-04-03T11:29:31;9.00;86.20
43673;DHT22;41723;49.326;8.430;2023-04-03T11:34:35;8.90;88.30
43673;DHT22;41723;49.326;8.430;2023-04-03T11:37:04;9.00;87.60
43673;DHT22;41723;49.326;8.430;2023-04-03T11:39:32;9.20;87.90
43673;DHT22;41723;49.326;8.430;2023-04-03T11:44:44;9.40;88.30
43673;DHT22;41723;49.326;8.430;2023-04-03T11:47:10;9.40;85.20
43673;DHT22;41723;49.326;8.430;2023-04-03T12:05:57;9.70;85.80
43673;DHT22;41723;49.326;8.430;2023-04-03T12:13:40;9.50;85.40
43673;DHT22;41723;49.326;8.430;2023-04-03T12:16:09;9.50;85.80
43673;DHT22;41723;49.326;8.430;2023-04-03T12:18:53;9.50;85.50
43673;DHT22;41723;49.326;8.430;2023-04-03T12:37:27;9.50;85.90
43673;DHT22;41723;49.326;8.430;2023-04-03T12:40:04;9.70;85.10
43673;DHT22;41723;49.326;8.430;2023-04-03T12:43:07;9.60;85.60
43673;DHT22;41723;49.326;8.430;2023-04-03T12:45:24;9.60;87.90
43673;DHT22;41723;49.326;8.430;2023-04-03T12:47:52;9.70;86.60
43673;DHT22;41723;49.326;8.430;2023-04-03T12:50:20;9.70;86.10
43673;DHT22;41723;49.326;8.430;2023-04-03T12:52:51;9.50;85.50
43673;DHT22;41723;49.326;8.430;2023-04-03T12:55:21;9.40;85.40
43673;DHT22;41723;49.326;8.430;2023-04-03T12:57:46;9.30;85.30
43673;DHT22;41723;49.326;8.430;2023-04-03T13:00:27;9.40;86.10
43673;DHT22;41723;49.326;8.430;2023-04-03T13:02:53;9.40;86.80
43673;DHT22;41723;49.326;8.430;2023-04-03T13:05:19;9.40;86.50
43673;DHT22;41723;49.326;8.430;2023-04-03T13:07:54;9.40;87.10
43673;DHT22;41723;49.326;8.430;2023-04-03T13:10:22;9.10;87.40
43673;DHT22;41723;49.326;8.430;2023-04-03T13:12:49;9.20;87.50
43673;DHT22;41723;49.326;8.430;2023-04-03T13:17:41;9.40;84.70
43673;DHT22;41723;49.326;8.430;2023-04-03T13:20:27;9.30;84.40
43673;DHT22;41723;49.326;8.430;2023-04-03T13:22:57;9.30;84.10
43673;DHT22;41723;49.326;8.430;2023-04-03T13:25:24;9.50;85.20
43673;DHT22;41723;49.326;8.430;2023-04-03T13:27:51;9.70;86.40
43673;DHT22;41723;49.326;8.430;2023-04-03T13:30:21;9.80;83.80
43673;DHT22;41723;49.326;8.430;2023-04-03T13:32:48;10.00;84.20
43673;DHT22;41723;49.326;8.430;2023-04-03T13:40:47;10.20;82.20
43673;DHT22;41723;49.326;8.430;2023-04-03T13:43:18;10.20;83.70
43673;DHT22;41723;49.326;8.430;2023-04-03T13:46:44;10.10;83.50
43673;DHT22;41723;49.326;8.430;2023-04-03T13:48:43;10.10;83.90
43673;DHT22;41723;49.326;8.430;2023-04-03T13:53:45;10.10;83.20
43673;DHT22;41723;49.326;8.430;2023-04-03T13:56:16;10.10;83.50
43673;DHT22;41723;49.326;8.430;2023-04-03T13:58:52;9.90;84.70
43673;DHT22;41723;49.326;8.430;2023-04-03T14:01:19;9.80;84.70
43673;DHT22;41723;49.326;8.430;2023-04-03T14:03:56;10.00;84.90
43673;DHT22;41723;49.326;8.430;2023-04-03T14:06:22;10.40;84.50
43673;DHT22;41723;49.326;8.430;2023-04-03T14:08:48;10.60;83.80
43673;DHT22;41723;49.326;8.430;2023-04-03T14:11:15;10.80;81.70
43673;DHT22;41723;49.326;8.430;2023-04-03T14:13:42;10.80;79.80
43673;DHT22;41723;49.326;8.430;2023-04-03T14:16:11;10.60;81.20
43673;DHT22;41723;49.326;8.430;2023-04-03T14:18:37;11.00;80.50
43673;DHT22;41723;49.326;8.430;2023-04-03T14:21:02;11.10;79.20
43673;DHT22;41723;49.326;8.430;2023-04-03T14:23:28;11.20;79.10
43673;DHT22;41723;49.326;8.430;2023-04-03T14:25:53;11.00;79.10
43673;DHT22;41723;49.326;8.430;2023-04-03T14:28:21;10.80;80.50
43673;DHT22;41723;49.326;8.430;2023-04-03T14:30:48;10.60;80.00
43673;DHT22;41723;49.326;8.430;2023-04-03T14:33:16;10.20;80.70
43673;DHT22;41723;49.326;8.430;2023-04-03T14:35:43;10.00;81.70
43673;DHT22;41723;49.326;8.430;2023-04-03T14:38:16;9.80;81.60
43673;DHT22;41723;49.326;8.430;2023-04-03T14:40:45;10.10;82.30
43673;DHT22;41723;49.326;8.430;2023-04-03T14:43:12;9.90;81.70
43673;DHT22;41723;49.326;8.430;2023-04-03T14:45:38;10.10;84.00
43673;DHT22;41723;49.326;8.430;2023-04-03T14:48:03;10.60;81.70
43673;DHT22;41723;49.326;8.430;2023-04-03T14:50:29;10.40;79.20
43673;DHT22;41723;49.326;8.430;2023-04-03T14:52:56;9.80;78.20
43673;DHT22;41723;49.326;8.430;2023-04-03T14:55:23;9.70;79.70
43673;DHT22;41723;49.326;8.430;2023-04-03T14:57:49;9.60;79.10
43673;DHT22;41723;49.326;8.430;2023-04-03T15:00:16;9.70;78.70
43673;DHT22;41723;49.326;8.430;2023-04-03T15:02:42;9.70;80.80
43673;DHT22;41723;49.326;8.430;2023-04-03T15:05:09;9.90;79.90
43673;DHT22;41723;49.326;8.430;2023-04-03T15:07:36;10.20;82.20
43673;DHT22;41723;49.326;8.430;2023-04-03T15:12:37;10.20;77.80
43673;DHT22;41723;49.326;8.430;2023-04-03T15:15:02;10.20;77.80
43673;DHT22;41723;49.326;8.430;2023-04-03T15:17:28;10.00;78.70
43673;DHT22;41723;49.326;8.430;2023-04-03T15:19:54;9.80;79.40
43673;DHT22;41723;49.326;8.430;2023-04-03T15:22:19;9.80;78.70
43673;DHT22;41723;49.326;8.430;2023-04-03T15:24:45;10.00;80.10
43673;DHT22;41723;49.326;8.430;2023-04-03T15:27:11;10.10;79.00
43673;DHT22;41723;49.326;8.430;2023-04-03T15:29:38;10.20;80.50
43673;DHT22;41723;49.326;8.430;2023-04-03T15:32:04;10.30;78.30
43673;DHT22;41723;49.326;8.430;2023-04-03T15:34:30;10.30;77.70
43673;DHT22;41723;49.326;8.430;2023-04-03T15:36:56;9.90;75.70
43673;DHT22;41723;49.326;8.430;2023-04-03T15:39:22;9.90;76.10
43673;DHT22;41723;49.326;8.430;2023-04-03T15:41:48;9.60;76.30
43673;DHT22;41723;49.326;8.430;2023-04-03T15:44:46;9.60;77.90
43673;DHT22;41723;49.326;8.430;2023-04-03T15:47:44;9.80;78.00
43673;DHT22;41723;49.326;8.430;2023-04-03T15:50:42;9.90;77.80
43673;DHT22;41723;49.326;8.430;2023-04-03T15:53:40;10.00;76.70
43673;DHT22;41723;49.326;8.430;2023-04-03T15:56:39;10.00;76.60
43673;DHT22;41723;49.326;8.430;2023-04-03T15:59:37;9.90;76.20
43673;DHT22;41723;49.326;8.430;2023-04-03T16:02:35;9.70;76.30
43673;DHT22;41723;49.326;8.430;2023-04-03T16:05:33;9.50;75.40
43673;DHT22;41723;49.326;8.430;2023-04-03T16:15:46;9.70;76.00
43673;DHT22;41723;49.326;8.430;2023-04-03T16:18:13;9.50;76.20
43673;DHT22;41723;49.326;8.430;2023-04-03T16:20:40;9.40;75.50
43673;DHT22;41723;49.326;8.430;2023-04-03T16:23:05;9.40;77.70
43673;DHT22;41723;49.326;8.430;2023-04-03T16:25:31;9.60;78.80
43673;DHT22;41723;49.326;8.430;2023-04-03T16:27:57;9.70;76.30
43673;DHT22;41723;49.326;8.430;2023-04-03T16:30:22;9.70;76.20
43673;DHT22;41723;49.326;8.430;2023-04-03T16:32:48;9.70;74.90
43673;DHT22;41723;49.326;8.430;2023-04-03T16:35:13;9.70;74.70
43673;DHT22;41723;49.326;8.430;2023-04-03T16:37:39;9.50;77.00
43673;DHT22;41723;49.326;8.430;2023-04-03T16:40:05;9.60;76.40
43673;DHT22;41723;49.326;8.430;2023-04-03T16:42:31;9.60;75.60
43673;DHT22;41723;49.326;8.430;2023-04-03T16:44:57;9.60;76.00
43673;DHT22;41723;49.326;8.430;2023-04-03T16:47:25;9.60;75.70
43673;DHT22;41723;49.326;8.430;2023-04-03T16:49:50;9.60;76.00
43673;DHT22;41723;49.326;8.430;2023-04-03T16:52:16;9.60;75.10
43673;DHT22;41723;49.326;8.430;2023-04-03T16:54:42;9.60;76.60
43673;DHT22;41723;49.326;8.430;2023-04-03T16:57:08;9.50;76.20
43673;DHT22;41723;49.326;8.430;2023-04-03T16:59:33;9.50;76.60
43673;DHT22;41723;49.326;8.430;2023-04-03T17:01:59;9.60;77.80
43673;DHT22;41723;49.326;8.430;2023-04-03T17:04:24;9.60;75.80
43673;DHT22;41723;49.326;8.430;2023-04-03T17:06:50;9.50;78.20
43673;DHT22;41723;49.326;8.430;2023-04-03T17:09:19;9.40;75.40
43673;DHT22;41723;49.326;8.430;2023-04-03T17:11:46;9.30;76.00
43673;DHT22;41723;49.326;8.430;2023-04-03T17:14:11;9.20;75.80
43673;DHT22;41723;49.326;8.430;2023-04-03T17:16:38;9.30;78.40
43673;DHT22;41723;49.326;8.430;2023-04-03T17:19:04;9.30;75.90
43673;DHT22;41723;49.326;8.430;2023-04-03T17:21:31;9.20;77.50
43673;DHT22;41723;49.326;8.430;2023-04-03T17:23:58;9.20;78.10
43673;DHT22;41723;49.326;8.430;2023-04-03T17:26:25;9.10;77.00
43673;DHT22;41723;49.326;8.430;2023-04-03T17:28:51;9.20;77.80
43673;DHT22;41723;49.326;8.430;2023-04-03T17:31:17;9.20;77.00
43673;DHT22;41723;49.326;8.430;2023-04-03T17:33:43;9.20;77.70